createdAt,value
2022-11-16T00:01:33.028Z,6.15
2022-11-16T00:04:02.547Z,5.70
2022-11-16T00:06:30.529Z,5.53
2022-11-16T00:09:19.390Z,5.63
2022-11-16T00:11:47.555Z,5.20
2022-11-16T00:14:15.307Z,4.97
2022-11-16T00:16:43.041Z,5.57
2022-11-16T00:19:12.119Z,5.15
2022-11-16T00:21:39.819Z,5.30
2022-11-16T00:24:11.353Z,6.35
2022-11-16T00:26:39.130Z,6.07
2022-11-16T00:29:06.895Z,6.18
2022-11-16T00:31:34.576Z,6.18
2022-11-16T00:34:02.251Z,5.95
2022-11-16T00:36:30.229Z,6.80
2022-11-16T00:38:57.876Z,6.03
2022-11-16T00:41:27.253Z,6.22
2022-11-16T00:43:54.954Z,6.53
2022-11-16T00:46:22.983Z,6.30
2022-11-16T00:48:50.723Z,6.18
2022-11-16T00:51:18.428Z,6.65
2022-11-16T00:53:47.119Z,6.65
2022-11-16T00:56:14.873Z,6.20
2022-11-16T00:58:46.312Z,5.88
2022-11-16T01:01:14.470Z,6.47
2022-11-16T01:03:42.464Z,6.57
2022-11-16T01:06:13.030Z,6.45
2022-11-16T01:08:42.722Z,6.40
2022-11-16T01:11:29.091Z,5.97
2022-11-16T01:14:03.355Z,6.07
2022-11-16T01:16:31.181Z,5.47
2022-11-16T01:18:59.244Z,5.63
2022-11-16T01:21:26.924Z,6.57
2022-11-16T01:23:55.662Z,6.10
2022-11-16T01:26:24.377Z,5.72
2022-11-16T01:28:52.267Z,5.88
2022-11-16T01:31:21.525Z,6.05
2022-11-16T01:33:52.040Z,5.22
2022-11-16T01:36:23.794Z,5.18
2022-11-16T01:38:51.740Z,5.57
2022-11-16T01:41:25.895Z,5.25
2022-11-16T01:44:02.175Z,5.15
2022-11-16T01:46:48.047Z,5.20
2022-11-16T01:49:21.534Z,5.65
2022-11-16T01:51:54.043Z,5.35
2022-11-16T01:54:22.184Z,5.75
2022-11-16T01:56:58.085Z,5.43
2022-11-16T01:59:33.955Z,5.20
2022-11-16T02:02:04.054Z,5.18
2022-11-16T02:04:33.235Z,4.70
2022-11-16T02:07:07.517Z,5.18
2022-11-16T02:10:05.383Z,5.10
2022-11-16T02:12:53.567Z,5.57
2022-11-16T02:15:32.710Z,6.07
2022-11-16T02:18:22.521Z,5.22
2022-11-16T02:21:11.185Z,5.18
2022-11-16T02:24:12.111Z,4.50
2022-11-16T02:27:08.360Z,4.00
2022-11-16T02:29:41.242Z,3.70
2022-11-16T02:32:14.222Z,3.58
2022-11-16T02:34:45.968Z,3.92
2022-11-16T02:37:17.260Z,3.58
2022-11-16T02:39:47.442Z,3.90
2022-11-16T02:42:20.264Z,3.83
2022-11-16T02:44:52.602Z,3.50
2022-11-16T02:47:24.520Z,3.60
2022-11-16T02:49:57.746Z,3.10
2022-11-16T02:52:28.561Z,2.95
2022-11-16T02:54:56.392Z,3.13
2022-11-16T02:57:39.227Z,3.13
2022-11-16T03:00:17.163Z,2.70
2022-11-16T03:05:19.613Z,3.08
2022-11-16T03:08:01.532Z,3.38
2022-11-16T03:10:50.891Z,3.13
2022-11-16T03:13:22.288Z,3.08
2022-11-16T03:15:52.339Z,2.85
2022-11-16T03:18:22.668Z,2.75
2022-11-16T03:20:53.614Z,2.30
2022-11-16T03:23:21.433Z,2.20
2022-11-16T03:25:52.487Z,2.67
2022-11-16T03:28:25.710Z,3.05
2022-11-16T03:31:02.619Z,2.38
2022-11-16T03:33:36.420Z,2.03
2022-11-16T03:36:10.622Z,2.00
2022-11-16T03:38:40.944Z,1.90
2022-11-16T03:41:11.295Z,2.10
2022-11-16T03:43:41.311Z,1.70
2022-11-16T03:46:10.717Z,1.83
2022-11-16T03:48:41.101Z,1.70
2022-11-16T03:51:15.341Z,1.80
2022-11-16T03:53:43.607Z,1.75
2022-11-16T03:56:13.116Z,1.60
2022-11-16T03:58:40.809Z,1.92
2022-11-16T04:01:10.133Z,1.70
2022-11-16T04:03:39.388Z,1.90
2022-11-16T04:06:28.073Z,2.05
2022-11-16T04:09:24.733Z,2.08
2022-11-16T04:12:10.212Z,1.88
2022-11-16T04:14:57.044Z,1.88
2022-11-16T04:17:46.169Z,1.58
2022-11-16T04:20:33.786Z,1.50
2022-11-16T04:23:25.190Z,1.70
2022-11-16T04:25:53.931Z,1.75
2022-11-16T04:28:25.516Z,1.55
2022-11-16T04:31:19.461Z,1.92
2022-11-16T04:34:16.247Z,1.80
2022-11-16T04:37:06.359Z,1.92
2022-11-16T04:39:34.076Z,1.90
2022-11-16T04:42:19.091Z,1.60
2022-11-16T04:45:06.731Z,1.50
2022-11-16T04:47:41.518Z,1.90
2022-11-16T04:50:11.155Z,2.15
2022-11-16T04:52:40.844Z,1.80
2022-11-16T04:55:12.428Z,1.55
2022-11-16T04:57:40.685Z,1.55
2022-11-16T05:00:10.374Z,1.77
2022-11-16T05:02:40.119Z,1.60
2022-11-16T05:05:08.742Z,1.80
2022-11-16T05:07:39.719Z,1.95
2022-11-16T05:10:13.937Z,1.90
2022-11-16T05:12:42.163Z,1.75
2022-11-16T05:15:11.572Z,1.90
2022-11-16T05:17:40.841Z,2.00
2022-11-16T05:20:31.762Z,2.15
2022-11-16T05:23:05.927Z,2.15
2022-11-16T05:25:37.527Z,2.10
2022-11-16T05:28:08.539Z,2.60
2022-11-16T05:30:40.954Z,2.65
2022-11-16T05:33:09.344Z,2.63
2022-11-16T05:35:40.958Z,2.65
2022-11-16T05:38:10.023Z,3.10
2022-11-16T05:40:42.612Z,2.90
2022-11-16T05:43:10.372Z,2.85
2022-11-16T05:45:44.581Z,3.03
2022-11-16T05:48:15.602Z,7.18
2022-11-16T05:50:43.916Z,3.83
2022-11-16T05:53:25.305Z,2.88
2022-11-16T05:55:53.535Z,3.03
2022-11-16T05:58:22.292Z,2.95
2022-11-16T06:00:52.033Z,2.72
2022-11-16T06:03:20.848Z,2.90
2022-11-16T06:05:48.636Z,2.80
2022-11-16T06:08:18.037Z,2.90
2022-11-16T06:10:47.152Z,2.60
2022-11-16T06:13:15.292Z,2.47
2022-11-16T06:18:25.767Z,2.72
2022-11-16T06:20:54.931Z,3.28
2022-11-16T06:23:23.261Z,3.28
2022-11-16T06:25:56.311Z,3.30
2022-11-16T06:28:27.083Z,3.03
2022-11-16T06:30:55.924Z,2.97
2022-11-16T06:33:28.586Z,3.00
2022-11-16T06:36:00.361Z,2.78
2022-11-16T06:38:28.522Z,3.10
2022-11-16T06:41:01.331Z,3.38
2022-11-16T06:43:30.750Z,2.83
2022-11-16T06:45:59.090Z,2.90
2022-11-16T06:48:27.063Z,2.50
2022-11-16T06:50:55.519Z,2.83
2022-11-16T06:53:28.980Z,2.85
2022-11-16T06:56:03.527Z,2.45
2022-11-16T06:58:33.573Z,2.90
2022-11-16T07:01:06.810Z,2.58
2022-11-16T07:03:34.710Z,2.15
2022-11-16T07:06:07.452Z,2.20
2022-11-16T07:08:35.613Z,2.78
2022-11-16T07:11:06.767Z,2.00
2022-11-16T07:13:35.427Z,2.78
2022-11-16T07:16:06.015Z,2.35
2022-11-16T07:18:35.191Z,2.38
2022-11-16T07:21:07.418Z,2.05
2022-11-16T07:23:35.507Z,1.98
2022-11-16T07:26:07.114Z,1.73
2022-11-16T07:28:48.099Z,2.10
2022-11-16T07:31:17.628Z,1.73
2022-11-16T07:33:45.483Z,2.00
2022-11-16T07:36:31.746Z,1.70
2022-11-16T07:38:59.771Z,1.60
2022-11-16T07:41:28.856Z,1.92
2022-11-16T07:44:12.207Z,2.75
2022-11-16T07:46:47.038Z,1.33
2022-11-16T07:49:18.389Z,1.50
2022-11-16T07:51:58.409Z,1.20
2022-11-16T07:54:52.592Z,1.42
2022-11-16T07:57:24.310Z,1.42
2022-11-16T07:59:54.188Z,2.17
2022-11-16T08:02:21.910Z,2.47
2022-11-16T08:04:51.470Z,1.50
2022-11-16T08:07:23.967Z,1.20
2022-11-16T08:09:55.881Z,1.30
2022-11-16T08:12:25.905Z,1.40
2022-11-16T08:14:54.932Z,1.60
2022-11-16T08:17:22.639Z,1.50
2022-11-16T08:19:50.383Z,1.42
2022-11-16T08:22:18.110Z,1.38
2022-11-16T08:24:47.111Z,1.70
2022-11-16T08:27:16.906Z,1.67
2022-11-16T08:29:48.175Z,1.90
2022-11-16T08:32:16.592Z,1.73
2022-11-16T08:34:44.989Z,1.63
2022-11-16T08:37:13.164Z,1.80
2022-11-16T08:39:44.514Z,1.50
2022-11-16T08:42:12.532Z,1.80
2022-11-16T08:44:44.513Z,1.73
2022-11-16T08:47:16.662Z,1.55
2022-11-16T08:49:55.966Z,1.65
2022-11-16T08:52:25.742Z,1.58
2022-11-16T08:54:55.128Z,1.25
2022-11-16T08:57:23.008Z,1.55
2022-11-16T08:59:55.605Z,1.50
2022-11-16T09:02:25.823Z,2.00
2022-11-16T09:04:53.963Z,1.38
2022-11-16T09:07:22.291Z,1.38
2022-11-16T09:09:50.195Z,1.60
2022-11-16T09:12:18.702Z,1.25
2022-11-16T09:14:46.548Z,1.30
2022-11-16T09:17:16.566Z,1.67
2022-11-16T09:19:51.371Z,1.70
2022-11-16T09:22:19.167Z,1.48
2022-11-16T09:24:47.164Z,1.40
2022-11-16T09:27:15.017Z,2.45
2022-11-16T09:29:42.828Z,1.40
2022-11-16T09:32:10.658Z,1.73
2022-11-16T09:34:38.352Z,1.20
2022-11-16T09:37:08.636Z,1.60
2022-11-16T09:39:36.349Z,1.27
2022-11-16T09:42:20.807Z,1.70
2022-11-16T09:45:06.223Z,1.30
2022-11-16T09:47:48.903Z,1.10
2022-11-16T09:50:38.695Z,1.40
2022-11-16T09:53:25.097Z,0.93
2022-11-16T09:55:55.356Z,1.30
2022-11-16T09:58:31.438Z,1.50
2022-11-16T10:01:05.929Z,1.50
2022-11-16T10:03:41.711Z,1.40
2022-11-16T10:06:20.713Z,1.30
2022-11-16T10:08:52.420Z,1.40
2022-11-16T10:11:35.319Z,1.25
2022-11-16T10:14:25.458Z,1.05
2022-11-16T10:16:58.190Z,1.50
2022-11-16T10:19:35.799Z,2.08
2022-11-16T10:22:13.511Z,1.38
2022-11-16T10:24:53.588Z,1.52
2022-11-16T10:27:40.544Z,1.33
2022-11-16T10:30:10.878Z,1.45
2022-11-16T10:32:44.893Z,1.30
2022-11-16T10:35:17.919Z,1.25
2022-11-16T10:37:48.590Z,1.40
2022-11-16T10:40:25.938Z,1.15
2022-11-16T10:43:01.763Z,1.67
2022-11-16T10:45:39.392Z,1.45
2022-11-16T10:48:18.669Z,1.67
2022-11-16T10:50:48.784Z,1.33
2022-11-16T10:53:27.920Z,1.63
2022-11-16T10:56:11.482Z,1.42
2022-11-16T10:58:57.757Z,1.77
2022-11-16T11:01:34.498Z,1.40
2022-11-16T11:04:17.917Z,1.45
2022-11-16T11:06:46.963Z,1.40
2022-11-16T11:09:24.885Z,1.30
2022-11-16T11:12:22.673Z,1.13
2022-11-16T11:15:02.791Z,1.10
2022-11-16T11:17:31.390Z,1.70
2022-11-16T11:20:01.388Z,1.30
2022-11-16T11:22:29.343Z,1.40
2022-11-16T11:24:57.280Z,1.25
2022-11-16T11:27:33.482Z,1.38
2022-11-16T11:30:01.916Z,1.17
2022-11-16T11:32:34.122Z,1.50
2022-11-16T11:35:03.528Z,1.70
2022-11-16T11:37:34.221Z,1.35
2022-11-16T11:40:24.064Z,1.40
2022-11-16T11:43:01.805Z,1.30
2022-11-16T11:45:36.626Z,1.55
2022-11-16T11:48:16.784Z,1.50
2022-11-16T11:50:48.999Z,1.65
2022-11-16T11:53:37.003Z,1.60
2022-11-16T11:56:05.386Z,1.52
2022-11-16T11:58:38.098Z,1.40
2022-11-16T12:01:30.828Z,1.10
2022-11-16T12:04:29.591Z,1.00
2022-11-16T12:07:06.931Z,1.20
2022-11-16T12:09:43.941Z,1.27
2022-11-16T12:12:27.327Z,1.15
2022-11-16T12:15:21.919Z,1.00
2022-11-16T12:20:30.833Z,0.93
2022-11-16T12:23:22.708Z,1.00
2022-11-16T12:26:00.791Z,0.95
2022-11-16T12:28:51.227Z,0.80
2022-11-16T12:31:54.603Z,0.80
2022-11-16T12:34:36.113Z,1.00
2022-11-16T12:37:13.330Z,1.10
2022-11-16T12:39:45.382Z,1.08
2022-11-16T12:42:31.416Z,0.93
2022-11-16T12:45:32.606Z,0.80
2022-11-16T12:48:20.284Z,0.95
2022-11-16T12:50:57.640Z,1.00
2022-11-16T12:53:48.267Z,2.00
2022-11-16T12:56:28.031Z,0.90
2022-11-16T12:59:12.740Z,1.05
2022-11-16T13:01:45.022Z,1.00
2022-11-16T13:04:19.554Z,1.20
2022-11-16T13:06:53.453Z,1.70
2022-11-16T13:09:24.206Z,1.70
2022-11-16T13:11:57.288Z,1.30
2022-11-16T13:14:29.223Z,1.27
2022-11-16T13:16:59.660Z,0.70
2022-11-16T13:19:29.635Z,1.80
2022-11-16T13:22:03.674Z,1.20
2022-11-16T13:24:44.940Z,1.95
2022-11-16T13:27:32.448Z,2.60
2022-11-16T13:30:06.445Z,1.90
2022-11-16T13:32:56.295Z,2.00
2022-11-16T13:35:25.480Z,4.18
2022-11-16T13:37:53.139Z,11.40
2022-11-16T13:40:27.696Z,3.22
2022-11-16T13:43:18.379Z,1.97
2022-11-16T13:46:00.741Z,0.88
2022-11-16T13:48:34.292Z,1.70
2022-11-16T13:51:06.896Z,1.40
2022-11-16T13:54:42.703Z,1.17
2022-11-16T13:56:29.410Z,1.30
2022-11-16T13:58:58.627Z,1.25
2022-11-16T14:01:26.928Z,1.85
2022-11-16T14:04:33.359Z,1.40
2022-11-16T14:07:02.811Z,1.30
2022-11-16T14:09:45.171Z,1.33
2022-11-16T14:12:55.775Z,10.20
2022-11-16T14:15:28.872Z,1.70
2022-11-16T14:17:59.830Z,1.35
2022-11-16T14:20:37.231Z,4.18
2022-11-16T14:23:36.614Z,3.25
2022-11-16T14:26:14.460Z,4.10
2022-11-16T14:28:50.812Z,1.40
2022-11-16T14:31:25.030Z,1.60
2022-11-16T14:33:55.856Z,1.70
2022-11-16T14:36:39.902Z,1.20
2022-11-16T14:39:31.999Z,1.48
2022-11-16T14:42:02.802Z,1.30
2022-11-16T14:44:34.853Z,1.35
2022-11-16T14:47:03.663Z,1.30
2022-11-16T14:49:36.541Z,1.58
2022-11-16T14:52:06.802Z,1.40
2022-11-16T14:54:39.882Z,1.50
2022-11-16T14:57:14.558Z,1.75
2022-11-16T14:59:42.417Z,1.80
2022-11-16T15:02:18.703Z,1.45
2022-11-16T15:04:46.644Z,1.35
2022-11-16T15:07:15.392Z,1.40
2022-11-16T15:09:48.565Z,1.63
2022-11-16T15:12:36.844Z,1.60
2022-11-16T15:15:08.661Z,1.92
2022-11-16T15:17:36.594Z,3.72
2022-11-16T15:20:15.573Z,2.65
2022-11-16T15:22:45.484Z,3.15
2022-11-16T15:25:27.409Z,7.63
2022-11-16T15:27:56.334Z,15.93
2022-11-16T15:30:26.867Z,7.88
2022-11-16T15:32:55.103Z,2.67
2022-11-16T15:35:24.542Z,1.70
2022-11-16T15:38:02.403Z,1.60
2022-11-16T15:40:32.162Z,1.98
2022-11-16T15:43:02.226Z,1.67
2022-11-16T15:45:32.239Z,2.03
2022-11-16T15:48:03.308Z,2.28
2022-11-16T15:50:31.391Z,1.70
2022-11-16T15:52:59.782Z,1.67
2022-11-16T15:55:38.432Z,2.10
2022-11-16T15:58:16.074Z,1.75
2022-11-16T16:00:49.073Z,1.75
2022-11-16T16:03:23.934Z,1.60
2022-11-16T16:05:52.597Z,2.08
2022-11-16T16:08:26.759Z,1.42
2022-11-16T16:11:13.696Z,1.50
2022-11-16T16:13:44.127Z,1.70
2022-11-16T16:16:27.260Z,1.60
2022-11-16T16:18:58.085Z,1.55
2022-11-16T16:21:29.291Z,1.67
2022-11-16T16:23:57.875Z,1.48
2022-11-16T16:26:26.950Z,1.75
2022-11-16T16:28:54.628Z,1.80
2022-11-16T16:31:22.331Z,2.25
2022-11-16T16:33:50.372Z,2.08
2022-11-16T16:36:18.105Z,2.60
2022-11-16T16:38:45.801Z,2.15
2022-11-16T16:41:23.971Z,2.47
2022-11-16T16:43:53.606Z,2.80
2022-11-16T16:46:21.787Z,2.80
2022-11-16T16:48:49.474Z,2.60
2022-11-16T16:51:17.164Z,2.58
2022-11-16T16:53:44.856Z,2.30
2022-11-16T16:56:16.349Z,2.30
2022-11-16T16:58:44.470Z,2.75
2022-11-16T17:01:13.633Z,2.30
2022-11-16T17:03:41.376Z,2.20
2022-11-16T17:06:09.286Z,2.38
2022-11-16T17:08:38.079Z,2.85
2022-11-16T17:11:06.726Z,2.20
2022-11-16T17:13:34.722Z,7.55
2022-11-16T17:16:05.691Z,3.78
2022-11-16T17:18:34.815Z,9.77
2022-11-16T17:21:06.241Z,5.65
2022-11-16T17:23:34.378Z,3.50
2022-11-16T17:26:04.710Z,3.22
2022-11-16T17:28:32.520Z,2.72
2022-11-16T17:31:03.109Z,3.70
2022-11-16T17:33:35.612Z,3.03
2022-11-16T17:36:03.885Z,3.58
2022-11-16T17:38:31.629Z,3.20
2022-11-16T17:41:05.041Z,3.30
2022-11-16T17:43:33.148Z,3.70
2022-11-16T17:46:05.681Z,3.60
2022-11-16T17:48:34.971Z,3.85
2022-11-16T17:51:03.021Z,3.67
2022-11-16T17:53:32.923Z,4.90
2022-11-16T17:56:00.793Z,3.70
2022-11-16T17:58:28.691Z,3.70
2022-11-16T18:00:56.483Z,3.55
2022-11-16T18:03:25.006Z,3.00
2022-11-16T18:06:01.394Z,3.22
2022-11-16T18:08:29.128Z,2.92
2022-11-16T18:10:57.123Z,3.03
2022-11-16T18:13:24.922Z,5.18
2022-11-16T18:15:52.568Z,5.80
2022-11-16T18:18:20.642Z,4.35
2022-11-16T18:20:50.735Z,4.20
2022-11-16T18:23:19.798Z,7.05
2022-11-16T18:25:47.467Z,4.20
2022-11-16T18:28:15.126Z,6.00
2022-11-16T18:30:42.838Z,14.02
2022-11-16T18:33:10.988Z,10.43
2022-11-16T18:35:38.707Z,9.10
2022-11-16T18:38:07.158Z,8.00
2022-11-16T18:40:36.195Z,6.72
2022-11-16T18:43:03.846Z,4.78
2022-11-16T18:45:32.647Z,4.47
2022-11-16T18:48:00.421Z,4.53
2022-11-16T18:50:28.670Z,4.15
2022-11-16T18:52:58.177Z,4.38
2022-11-16T18:55:26.005Z,6.82
2022-11-16T18:57:55.108Z,7.45
2022-11-16T19:00:23.263Z,4.68
2022-11-16T19:02:50.977Z,3.83
2022-11-16T19:05:18.650Z,4.78
2022-11-16T19:07:46.574Z,5.47
2022-11-16T19:10:14.583Z,5.07
2022-11-16T19:12:42.269Z,5.35
2022-11-16T19:15:11.922Z,4.88
2022-11-16T19:17:53.381Z,4.78
2022-11-16T19:20:27.688Z,4.35
2022-11-16T19:22:55.608Z,4.57
2022-11-16T19:25:23.335Z,4.15
2022-11-16T19:27:51.016Z,4.57
2022-11-16T19:30:20.445Z,4.20
2022-11-16T19:32:48.180Z,3.95
2022-11-16T19:35:16.774Z,3.95
2022-11-16T19:37:44.528Z,4.35
2022-11-16T19:40:13.166Z,3.85
2022-11-16T19:42:42.772Z,3.95
2022-11-16T19:45:11.858Z,3.50
2022-11-16T19:47:40.918Z,3.55
2022-11-16T19:50:11.747Z,3.78
2022-11-16T19:52:39.532Z,4.30
2022-11-16T19:55:07.752Z,4.65
2022-11-16T19:57:35.484Z,3.35
2022-11-16T20:00:03.204Z,3.28
2022-11-16T20:02:32.816Z,3.92
2022-11-16T20:05:02.130Z,3.08
2022-11-16T20:07:30.128Z,4.25
2022-11-16T20:09:58.381Z,5.28
2022-11-16T20:12:26.087Z,7.25
2022-11-16T20:14:53.861Z,3.90
2022-11-16T20:17:21.540Z,4.65
2022-11-16T20:19:49.322Z,5.25
2022-11-16T20:22:18.560Z,3.13
2022-11-16T20:24:46.484Z,4.68
2022-11-16T20:27:14.221Z,2.90
2022-11-16T20:29:41.934Z,3.08
2022-11-16T20:32:09.666Z,3.85
2022-11-16T20:34:37.675Z,2.72
2022-11-16T20:37:06.607Z,3.85
2022-11-16T20:39:36.035Z,3.30
2022-11-16T20:42:03.797Z,3.65
2022-11-16T20:44:31.653Z,3.72
2022-11-16T20:46:59.339Z,5.40
2022-11-16T20:49:27.047Z,4.07
2022-11-16T20:51:54.841Z,4.40
2022-11-16T20:54:24.303Z,4.85
2022-11-16T20:56:53.401Z,3.50
2022-11-16T20:59:21.222Z,3.67
2022-11-16T21:01:49.162Z,3.83
2022-11-16T21:04:17.210Z,3.75
2022-11-16T21:06:45.048Z,3.00
2022-11-16T21:09:15.434Z,3.33
2022-11-16T21:12:00.715Z,3.75
2022-11-16T21:14:29.801Z,3.63
2022-11-16T21:16:57.520Z,3.13
2022-11-16T21:19:25.347Z,3.58
2022-11-16T21:21:53.094Z,4.18
2022-11-16T21:24:21.700Z,4.20
2022-11-16T21:26:49.791Z,4.05
2022-11-16T21:29:17.504Z,3.08
2022-11-16T21:31:46.508Z,2.88
2022-11-16T21:34:14.222Z,3.35
2022-11-16T21:36:41.887Z,3.13
2022-11-16T21:39:09.699Z,2.03
2022-11-16T21:41:37.637Z,2.60
2022-11-16T21:44:05.682Z,2.50
2022-11-16T21:46:33.440Z,2.63
2022-11-16T21:49:02.548Z,2.72
2022-11-16T21:51:30.744Z,3.03
2022-11-16T21:53:58.534Z,2.67
2022-11-16T21:56:27.192Z,2.75
2022-11-16T21:58:55.357Z,2.55
2022-11-16T22:01:24.315Z,2.13
2022-11-16T22:04:06.312Z,2.80
2022-11-16T22:06:53.159Z,2.28
2022-11-16T22:09:21.514Z,2.22
2022-11-16T22:11:49.546Z,2.13
2022-11-16T22:14:17.231Z,2.13
2022-11-16T22:16:44.973Z,2.05
2022-11-16T22:19:12.671Z,2.10
2022-11-16T22:21:41.722Z,2.10
2022-11-16T22:24:09.755Z,2.17
2022-11-16T22:26:38.079Z,1.90
2022-11-16T22:29:05.808Z,3.28
2022-11-16T22:31:33.503Z,2.88
2022-11-16T22:34:01.219Z,2.60
2022-11-16T22:36:28.944Z,2.40
2022-11-16T22:38:58.017Z,2.47
2022-11-16T22:41:25.804Z,2.22
2022-11-16T22:43:53.608Z,2.50
2022-11-16T22:46:21.296Z,2.28
2022-11-16T22:48:49.008Z,2.05
2022-11-16T22:51:20.688Z,2.45
2022-11-16T22:53:48.499Z,2.58
2022-11-16T22:56:17.645Z,2.33
2022-11-16T22:58:45.380Z,1.75
2022-11-16T23:01:13.050Z,2.20
2022-11-16T23:03:40.928Z,2.20
2022-11-16T23:06:09.208Z,2.05
2022-11-16T23:08:37.853Z,2.00
2022-11-16T23:11:25.643Z,2.22
2022-11-16T23:14:09.314Z,2.10
2022-11-16T23:16:37.548Z,1.90
2022-11-16T23:19:25.860Z,1.90
2022-11-16T23:22:10.957Z,2.08
2022-11-16T23:24:56.118Z,2.67
2022-11-16T23:27:33.053Z,1.55
2022-11-16T23:30:10.794Z,2.28
2022-11-16T23:32:40.019Z,1.73
2022-11-16T23:35:08.369Z,2.65
2022-11-16T23:37:36.123Z,2.05
2022-11-16T23:40:03.836Z,2.20
2022-11-16T23:42:49.134Z,2.40
2022-11-16T23:45:18.465Z,2.10
2022-11-16T23:47:46.196Z,1.90
2022-11-16T23:50:13.863Z,2.17
2022-11-16T23:52:41.532Z,2.33
2022-11-16T23:55:09.769Z,1.77
2022-11-16T23:57:37.471Z,2.08
